Bishops Head, MD NWLON current weather conditions

sailwx.info

Wind from 259 at 7 knots gusting 7

Air temperature 8.9° C
Water temperature 6.1° C

Last reported at 2017-Feb-19 10:36 UTC.
Time now 2017-Feb-19 11:55 UTC

Location: N 38°13' W 076°02'.
View on Google Maps.

See reports from other nearby stations

  
Tides and Currents Weather Stations Pressure Air Temp Water Temp Dewpoint Dewpoint Depression Visibility Wind Speed Wind Dir Waves Ship Positions
date/time (UTC)wind fromknots sea level pressurealtimeterstation pressurevisibilityair tempwater tempwave heightnotes
2017-Feb-19 10:36 259 7 gusting 7 8.9 6.1
2017-Feb-19 10:30 248 6 gusting 8 9.4 6.1
2017-Feb-19 10:24 247 7 gusting 9 9.4 6.1
2017-Feb-19 10:18 246 8 gusting 9 8.9 6.1
2017-Feb-19 10:12 244 9 gusting 9 9.4 6.1
2017-Feb-19 10:06 238 9 gusting 11 10.0 6.1
2017-Feb-19 10:00 233 10 gusting 11 9.4 6.1
2017-Feb-19 09:54 238 11 gusting 12 9.4 6.1
2017-Feb-19 09:48 240 11 gusting 13 10.0 6.1
2017-Feb-19 09:42 240 11 gusting 12 10.0 6.1
2017-Feb-19 09:36 236 11 gusting 12 10.0 6.1
2017-Feb-19 09:30 232 11 gusting 12 10.0 6.1
2017-Feb-19 09:24 235 11 gusting 12 10.6 6.1
2017-Feb-19 09:18 231 12 gusting 12 10.0 6.1
2017-Feb-19 09:12 229 11 gusting 11 10.0 6.1
2017-Feb-19 09:06 236 10 gusting 13 9.4 6.1
2017-Feb-19 09:00 238 12 gusting 13 10.0 6.1
2017-Feb-19 08:54 234 12 gusting 13 9.4 6.1
2017-Feb-19 08:48 231 11 gusting 13 9.4 6.1
2017-Feb-19 08:42 233 12 gusting 13 9.4 6.1
2017-Feb-19 08:36 236 10 gusting 12 8.9 6.1
2017-Feb-19 08:30 233 9 gusting 10 8.9 6.1
2017-Feb-19 08:24 235 8 gusting 11 8.9 6.1
2017-Feb-19 08:18 231 11 gusting 12 9.4 6.1
2017-Feb-19 08:12 226 11 gusting 12 10.0 6.1
2017-Feb-19 08:06 227 9 gusting 13 10.6 6.1
2017-Feb-19 08:00 224 12 gusting 13 10.6 6.1
2017-Feb-19 07:54 226 12 gusting 13 11.1 6.1
2017-Feb-19 07:48 219 13 gusting 13 11.1 6.7
2017-Feb-19 07:42 217 12 gusting 14 11.1 6.7
2017-Feb-19 07:36 217 13 gusting 13 11.7 6.7
2017-Feb-19 07:30 208 11 gusting 13 11.7 7.2
2017-Feb-19 07:24 208 12 gusting 14 11.7 7.2
2017-Feb-19 07:18 217 13 gusting 17 11.7 7.2
2017-Feb-19 07:12 204 16 gusting 17 11.7 7.2
2017-Feb-19 07:06 272 6 gusting 9 11.1 7.2
2017-Feb-19 07:00 298 7 gusting 11 10.6 7.2
2017-Feb-19 06:54 263 9 gusting 12 11.7 7.2
2017-Feb-19 06:48 229 11 gusting 13 11.7 7.2
2017-Feb-19 06:42 223 8 gusting 8 9.4 7.2
2017-Feb-19 06:36 225 5 gusting 7 9.4 7.2
2017-Feb-19 06:30 235 7 gusting 7 9.4 7.2
2017-Feb-19 06:24 246 6 gusting 10 10.0 7.2
2017-Feb-19 06:18 230 9 gusting 11 10.0 7.2
2017-Feb-19 06:12 232 8 gusting 10 10.6 7.2
2017-Feb-19 06:06 220 10 gusting 10 11.1 7.2
2017-Feb-19 06:00 224 9 gusting 9 10.0 6.7
2017-Feb-19 05:54 227 9 gusting 9 10.0 6.7
2017-Feb-19 05:48 232 8 gusting 9 11.1 6.7
2017-Feb-19 05:42 234 8 gusting 8 10.6 6.7
2017-Feb-19 05:36 230 6 gusting 7 9.4 6.7
2017-Feb-19 05:30 224 6 gusting 7 10.0 6.7
2017-Feb-19 05:24 229 5 gusting 7 10.0 6.7
2017-Feb-19 05:18 236 6 gusting 7 11.1 6.7
2017-Feb-19 05:12 259 5 gusting 6 11.7 6.7
2017-Feb-19 05:06 291 3 gusting 5 11.7 6.7
2017-Feb-19 05:00 237 4 gusting 6 12.2 6.7
2017-Feb-19 04:54 206 6 gusting 9 11.1 6.7
2017-Feb-19 04:48 210 7 gusting 8 11.1 6.7
2017-Feb-19 04:42 216 8 gusting 9 11.1 6.1
2017-Feb-19 04:36 209 9 gusting 10 11.1 6.1
2017-Feb-19 04:30 215 9 gusting 11 11.1 6.1
2017-Feb-19 04:24 214 9 gusting 10 11.7 6.1
2017-Feb-19 04:18 213 9 gusting 9 11.1 5.6
2017-Feb-19 04:12 213 6 gusting 6 11.1 5.6
2017-Feb-19 04:06 211 4 gusting 4 11.1 5.6
2017-Feb-19 04:00 198 3 gusting 4 10.6 5.6
2017-Feb-19 03:54 185 3 gusting 4 10.0 5.6
2017-Feb-19 03:48 186 4 gusting 5 10.6 5.6
2017-Feb-19 03:42 187 4 gusting 5 10.6 5.6
2017-Feb-19 03:36 186 4 gusting 5 10.6 5.6
2017-Feb-19 03:30 185 5 gusting 5 11.1 6.1
2017-Feb-19 03:24 183 4 gusting 5 10.6 6.1
2017-Feb-19 03:18 165 3 gusting 3 10.6 6.1
2017-Feb-19 03:12 157 2 gusting 4 10.0 6.1
2017-Feb-19 03:06 175 3 gusting 4 10.0 5.6
2017-Feb-19 03:00 168 2 gusting 4 9.4 5.6
2017-Feb-19 02:54 176 3 gusting 5 9.4 5.6
2017-Feb-19 02:48 180 5 gusting 6 8.9 5.6
2017-Feb-19 02:42 177 6 gusting 6 8.9 5.6
2017-Feb-19 02:36 169 6 gusting 7 8.9 5.6
2017-Feb-19 02:30 174 6 gusting 6 9.4 5.6
2017-Feb-19 02:24 183 6 gusting 8 9.4 5.6
2017-Feb-19 02:18 184 7 gusting 9 9.4 5.6
2017-Feb-19 02:12 184 8 gusting 9 9.4 5.6
2017-Feb-19 02:06 191 7 gusting 7 10.0 5.6
2017-Feb-19 02:00 195 7 gusting 7 9.4 5.6
2017-Feb-19 01:54 195 6 gusting 7 10.0 5.6
2017-Feb-19 01:48 199 6 gusting 7 10.0 6.1
2017-Feb-19 01:42 199 7 gusting 7 9.4 6.1
2017-Feb-19 01:36 198 7 gusting 8 10.0 6.1
2017-Feb-19 01:30 199 8 gusting 9 10.0 6.1
2017-Feb-19 01:24 195 9 gusting 10 10.0 6.1
2017-Feb-19 01:18 194 9 gusting 9 10.0 6.1
2017-Feb-19 01:00 194 11 gusting 12 10.0 6.1
2017-Feb-19 00:54 196 10 gusting 10 10.0 6.1
2017-Feb-19 00:48 198 9 gusting 10 10.0 6.1
2017-Feb-19 00:42 197 10 gusting 11 10.0 6.7
2017-Feb-19 00:36 196 11 gusting 12 10.0 6.7
2017-Feb-19 00:30 195 12 gusting 13 10.0 6.7
2017-Feb-19 00:24 193 12 gusting 12 9.4 6.7
2017-Feb-19 00:18 194 11 gusting 11 9.4 6.7
2017-Feb-19 00:12 194 11 gusting 11 10.0 6.7
2017-Feb-19 00:06 195 10 gusting 11 10.0 7.2
2017-Feb-18 23:48 193 10 gusting 10 10.0 6.1
2017-Feb-18 23:42 193 9 gusting 11 10.0 6.1
2017-Feb-18 23:36 194 11 gusting 13 10.0 6.7
2017-Feb-18 23:30 193 12 gusting 13 10.0 7.2
2017-Feb-18 23:24 193 13 gusting 13 10.6 7.2
2017-Feb-18 23:18 194 13 gusting 13 10.6 7.2
2017-Feb-18 23:12 194 13 gusting 14 10.6 7.2
2017-Feb-18 23:06 194 13 gusting 14 11.1 7.2
2017-Feb-18 23:00 194 13 gusting 14 11.1 7.2
2017-Feb-18 22:54 191 13 gusting 14 11.1 7.2
2017-Feb-18 22:48 192 13 gusting 14 11.1 7.2
2017-Feb-18 22:42 187 13 gusting 14 11.7 7.2
2017-Feb-18 22:36 184 13 gusting 14 11.7 7.2
2017-Feb-18 22:30 184 13 gusting 14 11.1 7.2
2017-Feb-18 22:24 183 13 gusting 15 11.7 7.2
2017-Feb-18 22:18 183 14 gusting 16 11.7 7.2
2017-Feb-18 22:12 183 13 gusting 17 11.7 7.2
2017-Feb-18 22:06 184 13 gusting 14 11.7 7.2
2017-Feb-18 22:00 183 12 gusting 13 11.7 7.2
2017-Feb-18 21:54 181 11 gusting 13 11.1 7.2
2017-Feb-18 21:48 179 11 gusting 13 11.1 7.2
2017-Feb-18 21:42 179 11 gusting 12 11.1 7.2
2017-Feb-18 21:36 179 10 gusting 13 10.6 7.2
2017-Feb-18 21:30 178 12 gusting 13 11.1 7.2
2017-Feb-18 21:24 177 11 gusting 13 11.1 7.2
2017-Feb-18 21:18 179 12 gusting 13 11.7 7.2
2017-Feb-18 21:12 177 11 gusting 12 10.0 7.2
2017-Feb-18 21:06 171 9 gusting 10 9.4 7.2
2017-Feb-18 21:00 169 9 gusting 10 10.0 7.2
2017-Feb-18 20:54 166 8 gusting 10 9.4 7.2
2017-Feb-18 20:48 165 9 gusting 11 8.9 7.2
2017-Feb-18 20:42 166 10 gusting 10 8.3 7.2
2017-Feb-18 20:36 157 10 gusting 11 7.8 7.2
2017-Feb-18 20:30 154 10 gusting 10 7.8 7.2
2017-Feb-18 20:24 152 9 gusting 10 7.8 7.2
2017-Feb-18 20:18 149 9 gusting 10 7.2 7.2
2017-Feb-18 20:12 147 9 gusting 10 7.2 7.2
2017-Feb-18 20:06 146 9 gusting 11 7.2 7.2
2017-Feb-18 20:00 147 10 gusting 10 7.2 6.7
2017-Feb-18 19:54 151 10 gusting 10 7.2 6.7
2017-Feb-18 19:48 153 10 gusting 10 7.2 6.7
2017-Feb-18 19:42 154 10 gusting 10 7.2 6.7
2017-Feb-18 19:36 157 9 gusting 9 7.2 6.7
2017-Feb-18 19:30 158 8 gusting 9 6.7 6.1
2017-Feb-18 19:24 154 8 gusting 10 7.2 6.1
2017-Feb-18 19:18 145 9 gusting 10 6.7 6.1
2017-Feb-18 19:12 144 9 gusting 10 6.7 6.1
2017-Feb-18 19:06 143 9 gusting 10 6.7 6.1
2017-Feb-18 19:00 139 9 gusting 10 6.1 6.1
2017-Feb-18 18:54 136 8 gusting 9 6.7 6.1
2017-Feb-18 18:48 139 7 gusting 7 7.2 6.1
2017-Feb-18 18:42 141 7 gusting 8 7.2 5.6
2017-Feb-18 18:36 142 8 gusting 9 6.7 5.6
2017-Feb-18 18:30 144 8 gusting 9 6.7 5.6
2017-Feb-18 18:24 144 9 gusting 9 6.7 5.6
2017-Feb-18 18:18 140 7 gusting 8 6.7 5.6
2017-Feb-18 18:12 146 7 gusting 9 6.1 5.6
2017-Feb-18 18:06 152 8 gusting 9 6.1 5.6
2017-Feb-18 18:00 154 7 gusting 7 6.1 5.6
2017-Feb-18 17:54 140 6 gusting 6 6.1 5.6
2017-Feb-18 17:48 161 6 gusting 7 7.2 5.6
2017-Feb-18 17:42 170 7 gusting 9 7.8 5.0
2017-Feb-18 17:36 171 8 gusting 8 7.2 5.0
2017-Feb-18 17:30 173 6 gusting 7 7.2 5.0
2017-Feb-18 17:24 188 7 gusting 7 7.8 5.0
2017-Feb-18 17:18 201 6 gusting 7 7.8 5.0
2017-Feb-18 17:12 206 7 gusting 7 7.8 5.0
2017-Feb-18 17:06 210 7 gusting 8 8.3 4.4
2017-Feb-18 17:00 209 6 gusting 6 7.2 4.4
2017-Feb-18 16:54 177 1 gusting 3 6.1 4.4
2017-Feb-18 16:48 133 2 gusting 2 6.1 4.4
2017-Feb-18 16:42 153 1 gusting 2 6.7 4.4
2017-Feb-18 16:36 152 1 gusting 3 7.2 4.4
2017-Feb-18 16:30 232 2 gusting 4 6.7 4.4
2017-Feb-18 16:24 198 4 gusting 6 6.7 3.9
2017-Feb-18 16:18 168 6 gusting 7 6.1 3.9
2017-Feb-18 16:12 155 6 gusting 7 5.6 3.9
2017-Feb-18 16:06 149 6 gusting 6 5.6 3.9
2017-Feb-18 16:00 133 3 gusting 4 5.6 3.9
2017-Feb-18 15:54 144 3 gusting 4 5.6 3.9
2017-Feb-18 15:48 147 3 gusting 4 5.6 3.9
2017-Feb-18 15:42 150 4 gusting 4 5.6 3.9
2017-Feb-18 15:36 153 3 gusting 3 5.6 3.9
2017-Feb-18 15:30 153 3 gusting 4 5.6 3.9
2017-Feb-18 15:24 160 3 gusting 4 5.6 3.3
2017-Feb-18 15:18 140 4 gusting 4 5.6 3.3
2017-Feb-18 15:12 139 3 gusting 4 5.6 3.3
2017-Feb-18 15:06 164 2 gusting 2 6.1 3.3
2017-Feb-18 15:00 193 6.7 3.3
2017-Feb-18 14:54 235 1 gusting 1 6.7 3.3
2017-Feb-18 14:48 347 6.7 3.3
2017-Feb-18 14:42 250 6.7 3.3
2017-Feb-18 14:36 224 1 gusting 1 6.1 3.3
2017-Feb-18 14:30 192 1 gusting 2 6.1 3.3
2017-Feb-18 14:24 231 2 gusting 2 6.1 3.3
2017-Feb-18 14:18 191 1 gusting 1 5.6 3.3
2017-Feb-18 14:12 257 1 gusting 3 5.6 3.3
2017-Feb-18 14:06 260 3 gusting 4 5.0 3.3
2017-Feb-18 14:00 252 4 gusting 6 5.0 3.3
2017-Feb-18 13:54 254 6 gusting 7 5.0 3.3
2017-Feb-18 13:48 262 6 gusting 7 5.0 3.3
2017-Feb-18 13:42 262 6 gusting 8 5.0 3.3
2017-Feb-18 13:36 254 7 gusting 8 5.0 3.3
2017-Feb-18 13:30 260 6 gusting 9 5.0 3.3
2017-Feb-18 13:24 249 8 gusting 9 5.0 3.3
2017-Feb-18 13:18 249 9 gusting 10 5.0 3.3
2017-Feb-18 13:12 257 7 gusting 9 5.0 3.3
2017-Feb-18 13:06 259 7 gusting 9 5.0 3.3
2017-Feb-18 13:00 256 8 gusting 10 5.0 3.3
2017-Feb-18 12:54 250 8 gusting 9 5.0 3.3
2017-Feb-18 12:48 249 8 gusting 8 5.0 3.3
2017-Feb-18 12:42 235 7 gusting 9 5.0 3.3
2017-Feb-18 12:36 233 8 gusting 10 5.0 3.3
2017-Feb-18 12:30 240 7 gusting 8 5.0 3.3
2017-Feb-18 12:24 235 7 gusting 9 5.0 3.3
2017-Feb-18 12:18 234 7 gusting 7 4.4 3.3
2017-Feb-18 12:12 239 5 gusting 6 4.4 3.3
2017-Feb-18 12:06 226 6 gusting 6 4.4 3.3
2017-Feb-18 12:00 224 5 gusting 6 4.4 3.3
2017-Feb-18 11:54 225 4 gusting 5 4.4 3.3
2017-Feb-18 11:48 217 4 gusting 5 4.4 3.3
2017-Feb-18 11:42 216 5 gusting 5 4.4 3.3
2017-Feb-18 11:36 212 4 gusting 6 4.4 3.3
2017-Feb-18 11:30 217 5 gusting 6 5.0 3.3
2017-Feb-18 11:24 213 6 gusting 7 5.0 3.3
2017-Feb-18 11:18 208 6 gusting 7 5.0 3.3
2017-Feb-18 11:12 205 6 gusting 7 4.4 3.3
2017-Feb-18 11:06 202 7 gusting 8 4.4 3.3
2017-Feb-18 11:00 194 7 gusting 9 4.4 3.3
2017-Feb-18 10:54 201 7 gusting 7 4.4 3.3
2017-Feb-18 10:48 188 5 gusting 6 3.9 3.3
2017-Feb-18 10:42 192 6 gusting 7 3.9 3.3
2017-Feb-18 10:36 190 6 gusting 7 3.9 3.3
2017-Feb-18 10:30 184 5 gusting 6 3.9 3.3
2017-Feb-18 10:24 182 5 gusting 6 4.4 3.3
2017-Feb-18 10:18 179 6 gusting 6 4.4 3.3
2017-Feb-18 10:12 174 5 gusting 6 4.4 3.3
2017-Feb-18 10:06 167 5 gusting 6 4.4 3.3
2017-Feb-18 10:00 159 5 gusting 6 4.4 3.3
2017-Feb-18 09:54 165 5 gusting 6 4.4 3.3
2017-Feb-18 09:48 159 4 gusting 6 4.4 3.9
2017-Feb-18 09:42 146 5 gusting 5 4.4 3.9
2017-Feb-18 09:36 147 5 gusting 5 4.4 3.9
2017-Feb-18 09:30 137 3 gusting 4 4.4 3.9
2017-Feb-18 09:24 136 3 gusting 5 4.4 3.9
2017-Feb-18 09:18 144 4 gusting 5 4.4 3.9
2017-Feb-18 09:12 159 4 gusting 5 4.4 3.9
2017-Feb-18 09:06 150 4 gusting 6 3.9 3.9
2017-Feb-18 09:00 152 5 gusting 6 3.9 3.9
2017-Feb-18 08:54 149 5 gusting 6 3.9 3.9
2017-Feb-18 08:48 145 6 gusting 7 3.9 3.9
2017-Feb-18 08:42 142 6 gusting 8 3.9 3.9
2017-Feb-18 08:36 124 3 gusting 5 3.9 3.9
2017-Feb-18 08:30 114 5 gusting 6 3.9 3.9
2017-Feb-18 08:24 113 4 gusting 6 3.9 3.9
2017-Feb-18 08:18 128 6 gusting 6 3.9 3.9
2017-Feb-18 08:12 113 5 gusting 7 3.9 3.3
2017-Feb-18 08:06 092 6 gusting 7 3.9 3.3
2017-Feb-18 08:00 096 7 gusting 8 3.9 3.3
2017-Feb-18 07:54 101 6 gusting 8 3.9 3.3
2017-Feb-18 07:48 092 6 gusting 8 3.9 3.3
2017-Feb-18 07:42 091 6 gusting 7 3.9 3.3
2017-Feb-18 07:36 101 6 gusting 7 3.9 3.3
2017-Feb-18 07:30 098 5 gusting 6 3.9 3.3
2017-Feb-18 07:24 100 6 gusting 6 3.9 3.3
2017-Feb-18 07:18 089 6 gusting 6 3.9 3.3
2017-Feb-18 07:12 087 4 gusting 6 3.9 3.3
2017-Feb-18 07:06 098 5 gusting 7 3.9 3.3
2017-Feb-18 07:00 114 6 gusting 6 4.4 3.3
2017-Feb-18 06:54 109 6 gusting 6 3.9 3.3
2017-Feb-18 06:48 102 5 gusting 6 3.9 3.3
2017-Feb-18 06:42 090 5 gusting 6 3.9 3.3
2017-Feb-18 06:36 098 4 gusting 6 3.9 3.9
2017-Feb-18 06:30 108 6 gusting 7 3.9 3.9
2017-Feb-18 06:24 097 6 gusting 8 3.9 3.9
2017-Feb-18 06:18 096 7 gusting 8 3.9 3.9
2017-Feb-18 06:12 087 7 gusting 9 3.9 3.9
2017-Feb-18 06:06 090 7 gusting 10 3.9 3.9
2017-Feb-18 06:00 091 8 gusting 10 3.9 3.9
2017-Feb-18 05:54 087 8 gusting 10 3.3 3.9
2017-Feb-18 05:48 084 8 gusting 11 3.9 3.9
2017-Feb-18 05:42 086 8 gusting 10 3.9 3.9
2017-Feb-18 05:36 088 7 gusting 9 3.9 3.9
2017-Feb-18 05:30 089 7 gusting 9 3.9 4.4
2017-Feb-18 05:24 088 7 gusting 9 3.9 4.4
2017-Feb-18 05:18 091 7 gusting 8 3.9 4.4
2017-Feb-18 05:12 098 6 gusting 7 3.9 4.4
2017-Feb-18 05:06 098 6 gusting 8 3.9 4.4
2017-Feb-18 05:00 091 6 gusting 7 3.9 4.4
2017-Feb-18 04:54 096 6 gusting 7 3.9 4.4
2017-Feb-18 04:48 098 6 gusting 7 3.9 4.4
2017-Feb-18 04:42 100 6 gusting 7 3.9 4.4
2017-Feb-18 04:36 096 6 gusting 7 3.9 4.4
2017-Feb-18 04:30 096 6 gusting 7 3.9 4.4
2017-Feb-18 04:24 095 6 gusting 8 3.3 3.9
2017-Feb-18 04:18 096 6 gusting 8 3.3 3.9
2017-Feb-18 04:12 092 6 gusting 8 3.9 3.9
2017-Feb-18 04:06 103 7 gusting 8 3.9 3.9
2017-Feb-18 04:00 101 6 gusting 8 3.9 3.9
2017-Feb-18 03:54 101 6 gusting 8 3.9 3.9
2017-Feb-18 03:48 104 6 gusting 9 3.9 3.9
2017-Feb-18 03:42 107 7 gusting 8 3.9 3.9
2017-Feb-18 03:36 113 7 gusting 8 3.9 3.9
2017-Feb-18 03:30 107 6 gusting 7 3.9 3.9
2017-Feb-18 03:24 104 6 gusting 7 3.9 3.9
2017-Feb-18 03:18 106 6 gusting 8 3.9 3.9
2017-Feb-18 03:12 103 6 gusting 7 3.9 3.9
2017-Feb-18 03:06 102 6 gusting 8 3.9 3.9
2017-Feb-18 03:00 100 6 gusting 8 3.9 3.9
2017-Feb-18 02:54 104 6 gusting 8 3.9 3.9
2017-Feb-18 02:48 106 7 gusting 8 3.9 3.9
2017-Feb-18 02:42 100 7 gusting 9 3.9 3.9
2017-Feb-18 02:36 095 6 gusting 7 3.9 3.9
2017-Feb-18 02:30 090 6 gusting 6 3.9 3.9
2017-Feb-18 02:24 086 6 gusting 7 3.9 3.9
2017-Feb-18 02:18 092 6 gusting 7 3.9 3.9
2017-Feb-18 02:12 106 6 gusting 7 4.4 3.9
2017-Feb-18 02:06 106 6 gusting 7 4.4 3.9
2017-Feb-18 02:00 101 6 gusting 8 4.4 3.9
2017-Feb-18 01:54 104 7 gusting 9 4.4 3.9
2017-Feb-18 01:48 103 6 gusting 9 4.4 3.9
2017-Feb-18 01:42 105 7 gusting 9 4.4 3.9
2017-Feb-18 01:36 109 7 gusting 8 4.4 3.9
2017-Feb-18 01:30 110 6 gusting 7 4.4 3.9
2017-Feb-18 01:24 107 6 gusting 6 4.4 3.9
2017-Feb-18 01:18 111 5 gusting 6 4.4 3.9
2017-Feb-18 01:12 106 5 gusting 6 4.4 3.9
2017-Feb-18 01:06 104 5 gusting 6 4.4 3.9
2017-Feb-18 01:00 100 5 gusting 6 3.9 3.9
2017-Feb-18 00:54 108 6 gusting 6 4.4 3.9
2017-Feb-18 00:48 107 5 gusting 6 3.9 3.9
2017-Feb-18 00:42 098 5 gusting 6 3.9 3.9
2017-Feb-18 00:36 106 5 gusting 6 3.9 3.9
2017-Feb-18 00:30 108 5 gusting 6 4.4 3.9
2017-Feb-18 00:24 107 6 gusting 6 4.4 3.9
2017-Feb-18 00:18 101 5 gusting 6 3.9 3.9
2017-Feb-18 00:12 103 5 gusting 6 3.9 3.9
2017-Feb-18 00:06 099 5 gusting 6 3.9 3.9
2017-Feb-18 00:00 096 4 gusting 6 3.9 3.9
2017-Feb-17 23:48 091 5 gusting 6 3.9 3.9
2017-Feb-17 23:42 095 5 gusting 6 3.9 3.9
2017-Feb-17 23:36 098 5 gusting 6 3.9 4.4
2017-Feb-17 23:30 104 5 gusting 5 3.9 4.4
2017-Feb-17 23:24 099 5 gusting 6 3.9 4.4
2017-Feb-17 23:18 088 5 gusting 6 3.9 4.4
2017-Feb-17 23:12 096 5 gusting 6 3.9 4.4
2017-Feb-17 23:06 091 6 gusting 6 3.9 4.4
2017-Feb-17 23:00 102 5 gusting 6 3.9 4.4
2017-Feb-17 22:54 116 6 gusting 6 4.4 4.4
2017-Feb-17 22:48 122 6 gusting 6 4.4 4.4
2017-Feb-17 22:42 134 6 gusting 6 3.9 4.4
2017-Feb-17 22:36 130 5 gusting 6 3.9 4.4
2017-Feb-17 22:30 129 5 gusting 6 3.9 4.4
2017-Feb-17 22:24 143 5 gusting 6 3.9 4.4
2017-Feb-17 22:18 143 5 gusting 6 3.9 5.0
2017-Feb-17 22:12 141 6 gusting 6 3.9 5.0
2017-Feb-17 22:06 146 5 gusting 6 3.9 4.4
2017-Feb-17 22:00 149 5 gusting 6 3.9 3.9
2017-Feb-17 21:54 149 6 gusting 6 3.9 4.4
2017-Feb-17 21:48 149 6 gusting 8 3.9 4.4
2017-Feb-17 21:42 157 7 gusting 8 3.9 4.4
2017-Feb-17 21:36 154 7 gusting 8 3.3 4.4
2017-Feb-17 21:30 155 7 gusting 9 3.3 4.4
2017-Feb-17 21:24 150 7 gusting 8 3.3 5.0
2017-Feb-17 21:18 149 7 gusting 8 3.3 5.0
2017-Feb-17 21:12 155 7 gusting 8 3.3 5.0
2017-Feb-17 21:06 151 7 gusting 7 3.3 5.0
2017-Feb-17 21:00 151 6 gusting 7 3.3 5.0
2017-Feb-17 20:54 144 6 gusting 8 3.3 5.0
2017-Feb-17 20:48 148 7 gusting 8 3.3 5.0
2017-Feb-17 20:42 150 6 gusting 8 3.3 5.0
2017-Feb-17 20:36 143 7 gusting 8 3.3 5.0
2017-Feb-17 20:30 141 6 gusting 7 3.3 4.4
2017-Feb-17 20:24 143 7 gusting 8 3.3 4.4
2017-Feb-17 20:18 146 7 gusting 9 3.3 4.4
2017-Feb-17 20:12 143 7 gusting 8 3.3 4.4
2017-Feb-17 20:06 129 5 gusting 6 3.3 4.4
2017-Feb-17 20:00 132 6 gusting 7 3.3 4.4
2017-Feb-17 19:54 135 5 gusting 6 3.3 4.4
2017-Feb-17 19:48 135 5 gusting 6 3.3 4.4
2017-Feb-17 19:42 135 5 gusting 5 3.3 4.4
2017-Feb-17 19:36 130 3 gusting 4 3.3 4.4
2017-Feb-17 19:30 134 4 gusting 4 3.3 4.4
2017-Feb-17 19:24 123 3 gusting 4 3.3 4.4
2017-Feb-17 19:18 144 3 gusting 4 3.3 4.4
2017-Feb-17 19:12 224 3.9 4.4
2017-Feb-17 19:06 271 1 gusting 3 3.3 4.4
2017-Feb-17 19:00 246 3 gusting 4 2.8 4.4
2017-Feb-17 18:54 246 3 gusting 4 2.8 4.4
2017-Feb-17 18:48 245 3 gusting 3 2.8 4.4
2017-Feb-17 18:42 241 2 gusting 3 2.8 4.4
2017-Feb-17 18:36 239 2 gusting 2 2.8 3.9
2017-Feb-17 18:30 238 1 gusting 3 2.8 3.9
2017-Feb-17 18:24 249 2 gusting 3 2.8 3.9
2017-Feb-17 18:18 236 3 gusting 4 2.8 3.3
2017-Feb-17 18:12 233 4 gusting 4 2.8 3.3
2017-Feb-17 18:06 251 3 gusting 5 2.8 3.3
2017-Feb-17 18:00 249 4 gusting 5 2.8 3.3
2017-Feb-17 17:54 256 5 gusting 5 2.2 3.3
2017-Feb-17 17:48 259 4 gusting 5 2.2 3.3
2017-Feb-17 17:42 251 4 gusting 4 2.2 3.3
2017-Feb-17 17:36 257 4 gusting 5 2.2 2.8
2017-Feb-17 17:30 258 4 gusting 5 2.2 2.8
2017-Feb-17 17:24 262 4 gusting 5 2.2 2.8
2017-Feb-17 17:18 265 4 gusting 5 2.2 2.8
2017-Feb-17 17:12 266 5 gusting 6 2.2 2.8
2017-Feb-17 17:06 263 5 gusting 6 2.2 2.8
2017-Feb-17 17:00 268 4 gusting 5 2.2 2.2
2017-Feb-17 16:54 275 3 gusting 5 2.2 2.2
2017-Feb-17 16:48 261 4 gusting 7 2.2 2.2
2017-Feb-17 16:42 260 6 gusting 7 2.2 2.2
2017-Feb-17 16:36 255 7 gusting 9 2.2 2.2
2017-Feb-17 16:30 266 7 gusting 8 2.2 2.8
2017-Feb-17 16:24 267 7 gusting 9 2.2 2.8
2017-Feb-17 16:18 265 7 gusting 8 1.7 2.8
2017-Feb-17 16:12 266 7 gusting 9 1.7 2.2
2017-Feb-17 16:06 271 7 gusting 8 1.7 2.2
2017-Feb-17 16:00 275 7 gusting 10 1.7 2.2
2017-Feb-17 15:54 280 9 gusting 10 2.2 2.2
2017-Feb-17 15:48 281 9 gusting 11 1.7 2.2
2017-Feb-17 15:42 281 9 gusting 11 1.7 2.2
2017-Feb-17 15:36 281 11 gusting 13 1.7 2.2
2017-Feb-17 15:30 284 9 gusting 10 1.7 2.2
2017-Feb-17 15:24 288 8 gusting 10 1.7 2.2
2017-Feb-17 15:18 283 9 gusting 11 1.7 2.2
2017-Feb-17 15:12 284 9 gusting 11 1.7 2.2
2017-Feb-17 15:06 285 9 gusting 11 1.7 2.2
2017-Feb-17 15:00 284 8 gusting 10 1.7 2.2
2017-Feb-17 14:54 284 9 gusting 10 1.7 2.2
2017-Feb-17 14:48 281 9 gusting 10 1.7 1.7
2017-Feb-17 14:42 286 8 gusting 10 1.7 1.7
2017-Feb-17 14:36 282 7 gusting 9 1.7 1.7
2017-Feb-17 14:30 286 9 gusting 11 1.7 1.7
2017-Feb-17 14:24 287 8 gusting 9 1.7 1.7
2017-Feb-17 14:18 288 7 gusting 11 1.7 1.7
2017-Feb-17 14:12 289 9 gusting 11 1.7 1.7
2017-Feb-17 14:06 295 9 gusting 10 1.7 1.7
2017-Feb-17 14:00 302 8 gusting 12 1.7 1.7
2017-Feb-17 13:54 301 8 gusting 11 1.7 1.7
2017-Feb-17 13:48 314 8 gusting 11 1.7 1.7
2017-Feb-17 13:42 299 8 gusting 13 1.7 1.7
2017-Feb-17 13:36 302 8 gusting 10 1.7 1.7
2017-Feb-17 13:30 301 9 gusting 13 1.1 1.7
2017-Feb-17 13:24 303 9 gusting 10 1.1 2.2
2017-Feb-17 13:18 305 7 gusting 11 1.1 2.2
2017-Feb-17 13:12 307 9 gusting 11 1.1 2.2
2017-Feb-17 13:06 312 7 gusting 10 1.1 2.2
2017-Feb-17 13:00 317 7 gusting 9 0.6 2.2
2017-Feb-17 12:54 326 6 gusting 9 0.6 2.2
2017-Feb-17 12:48 319 6 gusting 8 0.6 2.2
2017-Feb-17 12:42 319 6 gusting 7 -0.0 2.2
2017-Feb-17 12:36 330 6 gusting 7 -0.0 1.7
2017-Feb-17 12:30 339 6 gusting 7 -0.0 1.7
2017-Feb-17 12:24 334 6 gusting 7 -0.6 2.2
2017-Feb-17 12:18 327 6 gusting 7 -0.0 2.2
2017-Feb-17 12:12 329 5 gusting 7 -0.6 2.2
2017-Feb-17 12:06 327 6 gusting 8 -0.6 2.2
2017-Feb-17 12:00 323 7 gusting 9 -0.6 2.2
2017-Feb-17 11:54 323 7 gusting 9 -0.6 2.2
2017-Feb-17 11:48 328 6 gusting 8 -0.6 2.2
2017-Feb-17 11:42 328 7 gusting 9 -0.6 2.2
2017-Feb-17 11:36 324 7 gusting 9 -0.6 2.2
2017-Feb-17 11:30 319 8 gusting 10 -0.0 2.2
2017-Feb-17 11:24 321 7 gusting 11 -0.6 2.2
2017-Feb-17 11:18 316 7 gusting 9 -0.6 2.2